Time;durP1;ratioP1;P1;durP2;ratioP2;P2;SDS_P1;SDS_P2;PMS_P1;PMS_P2;Temp;Humidity;BMP_temperature;BMP_pressure;BME280_temperature;BME280_humidity;BME280_pressure;Samples;Min_cycle;Max_cycle;Signal;HPM_P1;HPM_P2
2023/01/27 00:01:06;;;;;;;30.63;17.00;;;;;;;-0.07;83.71;100392.79;1376363;90;21390;-85
2023/01/27 00:03:33;;;;;;;29.70;15.97;;;;;;;-0.10;83.73;100389.52;1370722;90;21577;-84
2023/01/27 00:06:00;;;;;;;31.93;18.40;;;;;;;-0.14;83.53;100382.34;1370668;90;22533;-81
2023/01/27 00:08:28;;;;;;;30.50;17.27;;;;;;;-0.12;83.86;100384.38;1369902;90;21391;-85
2023/01/27 00:13:45;;;;;;;34.38;19.20;;;;;;;-0.16;84.39;100384.17;1355143;92;21671;-84
2023/01/27 00:16:11;;;;;;;31.03;17.43;;;;;;;-0.18;84.38;100379.50;1370759;90;22105;-85
2023/01/27 00:18:38;;;;;;;27.37;16.07;;;;;;;-0.21;84.42;100377.53;1370872;90;21603;-85
2023/01/27 00:26:34;;;;;;;35.90;19.03;;;;;;;-0.32;85.27;100367.67;1524787;90;21381;-85
2023/01/27 00:29:00;;;;;;;29.50;17.13;;;;;;;-0.32;85.46;100368.97;1370466;90;21589;-83
2023/01/27 00:34:11;;;;;;;32.07;16.97;;;;;;;-0.29;85.51;100376.61;1518770;90;22062;-82
2023/01/27 00:36:39;;;;;;;29.40;17.57;;;;;;;-0.27;85.48;100377.38;1370735;90;22357;-85
2023/01/27 00:39:09;;;;;;;32.50;17.10;;;;;;;-0.25;85.47;100376.39;1368895;90;21640;-83
2023/01/27 00:41:36;;;;;;;28.93;16.70;;;;;;;-0.27;85.43;100378.22;1372648;90;22442;-83
2023/01/27 00:44:04;;;;;;;33.60;16.93;;;;;;;-0.29;85.37;100372.28;1370170;90;21496;-81
2023/01/27 00:46:31;;;;;;;29.17;16.70;;;;;;;-0.31;85.45;100370.67;1368840;90;21861;-80
2023/01/27 00:48:57;;;;;;;33.53;16.57;;;;;;;-0.30;85.07;100371.05;1370334;90;21559;-82
2023/01/27 00:51:24;;;;;;;33.77;16.33;;;;;;;-0.25;84.96;100370.35;1370325;90;21621;-79
2023/01/27 00:53:50;;;;;;;26.73;15.53;;;;;;;-0.26;84.96;100369.52;1370637;90;21511;-81
2023/01/27 00:56:17;;;;;;;34.80;18.50;;;;;;;-0.28;84.80;100370.52;1377058;90;21599;-79
2023/01/27 00:58:43;;;;;;;22.57;13.13;;;;;;;-0.26;84.73;100372.55;1370075;90;21591;-81
2023/01/27 01:01:13;;;;;;;27.70;16.30;;;;;;;-0.27;84.52;100366.98;1370787;90;21522;-81
2023/01/27 01:03:40;;;;;;;30.90;17.00;;;;;;;-0.25;84.57;100366.45;1367204;90;21374;-80
2023/01/27 01:06:10;;;;;;;27.23;16.00;;;;;;;-0.21;84.40;100369.26;1370040;90;21658;-76
2023/01/27 01:08:37;;;;;;;26.15;14.55;;;;;;;-0.23;84.06;100362.02;1366399;90;21570;-82
2023/01/27 01:11:06;;;;;;;31.57;17.27;;;;;;;-0.24;83.86;100361.15;1369666;90;21335;-81
2023/01/27 01:13:32;;;;;;;29.43;16.07;;;;;;;-0.21;84.06;100360.62;1368795;90;21463;-79
2023/01/27 01:16:21;;;;;;;30.83;16.43;;;;;;;-0.20;83.79;100361.86;1370260;90;21568;-82
2023/01/27 01:18:48;;;;;;;26.13;15.13;;;;;;;-0.20;83.64;100357.95;1518879;90;22440;-83
2023/01/27 01:21:14;;;;;;;26.83;14.33;;;;;;;-0.22;83.43;100355.05;1370995;90;22393;-81
2023/01/27 01:23:43;;;;;;;23.77;13.67;;;;;;;-0.27;83.07;100344.41;1370677;90;21721;-83
2023/01/27 01:26:12;;;;;;;29.97;15.73;;;;;;;-0.27;83.30;100339.67;1368053;90;22368;-83
2023/01/27 01:28:38;;;;;;;26.83;15.53;;;;;;;-0.28;82.83;100339.30;1368423;90;22520;-81
2023/01/27 01:31:08;;;;;;;26.03;15.37;;;;;;;-0.22;82.74;100336.84;1376395;90;21610;-82
2023/01/27 01:33:35;;;;;;;30.23;13.70;;;;;;;-0.23;82.60;100345.11;1367153;90;21462;-83
2023/01/27 01:36:07;;;;;;;29.97;15.60;;;;;;;-0.22;82.33;100347.25;1369671;90;21648;-78
2023/01/27 01:38:34;;;;;;;25.17;13.53;;;;;;;-0.25;82.25;100341.74;1367810;90;21544;-80
2023/01/27 01:41:00;;;;;;;25.70;14.40;;;;;;;-0.23;82.22;100345.11;1375885;90;22283;-79
2023/01/27 01:43:26;;;;;;;27.83;14.73;;;;;;;-0.27;81.98;100340.51;1472340;90;21530;-81
2023/01/27 01:46:01;;;;;;;26.73;15.30;;;;;;;-0.22;81.59;100340.28;1370733;90;21498;-82
2023/01/27 01:48:48;;;;;;;22.80;12.93;;;;;;;-0.19;81.33;100336.21;1524700;90;21428;-83
2023/01/27 01:51:28;;;;;;;23.70;13.43;;;;;;;-0.19;81.28;100338.81;1427189;90;21822;-82
2023/01/27 01:54:02;;;;;;;22.30;11.93;;;;;;;-0.19;80.84;100324.97;1518335;90;21545;-78
2023/01/27 01:56:40;;;;;;;24.00;13.47;;;;;;;-0.17;81.17;100324.41;1524634;90;21524;-81
2023/01/27 01:59:19;;;;;;;23.60;13.27;;;;;;;-0.22;81.21;100317.33;1367205;92;21525;-81
2023/01/27 02:01:45;;;;;;;25.97;13.57;;;;;;;-0.24;80.86;100322.59;1522480;90;21702;-83
2023/01/27 02:04:17;;;;;;;24.70;14.30;;;;;;;-0.20;80.67;100321.53;1375779;90;21516;-84
2023/01/27 02:06:57;;;;;;;22.07;11.87;;;;;;;-0.21;80.43;100322.44;1366887;90;21558;-84
2023/01/27 02:09:23;;;;;;;30.08;14.05;;;;;;;-0.22;80.44;100315.56;1464419;89;21321;-84
2023/01/27 02:11:50;;;;;;;22.50;13.33;;;;;;;-0.21;80.60;100319.00;1370531;90;21450;-84
2023/01/27 02:14:17;;;;;;;25.60;12.83;;;;;;;-0.21;80.42;100305.53;1370202;90;21432;-84
2023/01/27 02:16:44;;;;;;;18.97;10.03;;;;;;;-0.22;80.27;100310.36;1370039;90;21442;-84
2023/01/27 02:19:18;;;;;;;20.07;12.17;;;;;;;-0.22;80.15;100304.33;1370536;90;22409;-82
2023/01/27 02:21:46;;;;;;;23.03;12.30;;;;;;;-0.27;80.32;100291.09;1505564;90;21536;-79
2023/01/27 02:24:12;;;;;;;21.93;12.60;;;;;;;-0.26;80.51;100293.22;1369375;90;21518;-83
2023/01/27 02:26:44;;;;;;;16.57;9.30;;;;;;;-0.27;80.65;100285.05;1491470;90;21595;-85
2023/01/27 02:29:14;;;;;;;;;;;;;;;-0.31;80.07;100277.05;1487451;90;22253;-82
2023/01/27 02:31:41;;;;;;;17.85;10.55;;;;;;;-0.31;80.46;100282.25;1423872;90;20563;-82
2023/01/27 02:34:16;;;;;;;17.43;10.77;;;;;;;-0.27;80.31;100285.05;1441905;90;21920;-82
2023/01/27 02:36:54;;;;;;;22.30;12.33;;;;;;;-0.30;80.16;100285.22;1441999;90;21718;-81
2023/01/27 02:39:23;;;;;;;21.57;11.27;;;;;;;-0.25;80.02;100281.92;1367315;92;21538;-83
2023/01/27 02:41:53;;;;;;;20.93;11.63;;;;;;;-0.22;79.76;100276.55;1373849;90;21513;-82
2023/01/27 02:44:20;;;;;;;22.17;11.70;;;;;;;-0.23;79.31;100272.28;1525422;90;21390;-82
2023/01/27 02:46:47;;;;;;;19.00;11.33;;;;;;;-0.20;79.48;100276.45;1370850;90;21336;-83
2023/01/27 02:49:13;;;;;;;20.17;11.37;;;;;;;-0.22;78.55;100276.55;1515336;90;21551;-80
2023/01/27 02:51:39;;;;;;;20.83;11.87;;;;;;;-0.16;78.90;100276.21;1370845;90;21612;-82
2023/01/27 02:54:06;;;;;;;19.73;11.30;;;;;;;-0.14;78.94;100276.98;1371008;90;21507;-81
2023/01/27 02:56:32;;;;;;;17.47;10.67;;;;;;;-0.18;78.01;100261.14;1370722;90;21654;-81
2023/01/27 02:58:59;;;;;;;23.17;10.20;;;;;;;-0.13;77.88;100264.81;1370301;90;21628;-83
2023/01/27 03:01:25;;;;;;;18.00;10.63;;;;;;;-0.11;77.87;100266.88;1371063;90;21419;-81
2023/01/27 03:03:51;;;;;;;22.73;10.67;;;;;;;-0.09;77.92;100260.63;1370632;90;21714;-80
2023/01/27 03:06:18;;;;;;;17.10;10.20;;;;;;;-0.09;77.27;100265.84;1351593;92;21510;-81
2023/01/27 03:08:44;;;;;;;18.80;9.57;;;;;;;-0.07;77.32;100263.17;1369781;90;21389;-82
2023/01/27 03:11:11;;;;;;;16.30;9.03;;;;;;;-0.06;76.87;100264.84;1376185;90;21358;-82
2023/01/27 03:13:37;;;;;;;21.00;10.63;;;;;;;-0.10;76.54;100265.47;1370660;90;21396;-82
2023/01/27 03:18:52;;;;;;;18.93;10.00;;;;;;;-0.06;76.20;100264.40;1524660;90;21447;-83
2023/01/27 03:21:19;;;;;;;20.17;9.40;;;;;;;-0.07;76.12;100261.87;1368868;90;21454;-79
2023/01/27 03:23:47;;;;;;;20.10;10.27;;;;;;;-0.05;76.06;100258.27;1370024;90;21412;-84
2023/01/27 03:26:14;;;;;;;15.27;8.30;;;;;;;-0.07;76.16;100252.30;1368818;90;21557;-85
2023/01/27 03:28:40;;;;;;;17.50;9.77;;;;;;;-0.06;76.10;100250.52;1370182;90;21520;-82
2023/01/27 03:31:18;;;;;;;18.93;10.30;;;;;;;-0.06;75.74;100253.99;1371011;90;21765;-84
2023/01/27 03:33:42;;;;;;;19.43;9.13;;;;;;;-0.06;75.84;100248.79;1374525;90;21720;-84
2023/01/27 03:47:06;;;;;;;14.43;8.10;;;;;;;-0.02;75.70;100231.23;1524652;90;21459;-82
2023/01/27 03:49:32;;;;;;;13.90;7.80;;;;;;;-0.05;75.64;100232.25;1370293;90;21494;-84
2023/01/27 03:51:59;;;;;;;16.40;8.77;;;;;;;-0.06;75.66;100226.67;1371128;90;22422;-85
2023/01/27 03:54:25;;;;;;;14.73;8.80;;;;;;;-0.09;75.52;100222.91;1370410;90;21721;-83
2023/01/27 03:56:51;;;;;;;14.67;7.67;;;;;;;-0.04;75.85;100218.77;1370772;90;21447;-84
2023/01/27 03:59:17;;;;;;;16.63;9.93;;;;;;;-0.03;75.35;100209.59;1371173;90;22577;-84
2023/01/27 04:01:43;;;;;;;18.63;9.00;;;;;;;-0.03;75.53;100210.03;1370796;90;21501;-84
2023/01/27 04:06:57;;;;;;;13.63;8.30;;;;;;;-0.04;75.03;100205.76;1518580;90;21447;-82
2023/01/27 04:09:33;;;;;;;15.17;8.57;;;;;;;-0.05;74.48;100210.59;1369685;90;21468;-83
2023/01/27 04:12:04;;;;;;;15.77;7.63;;;;;;;-0.03;74.90;100203.52;1388323;90;22413;-80
2023/01/27 04:14:37;;;;;;;;;;;;;;;-0.04;74.60;100201.86;1503981;90;21347;-82
2023/01/27 04:17:16;;;;;;;16.27;8.50;;;;;;;-0.07;74.28;100198.96;1372147;90;20398;-83
2023/01/27 04:19:43;;;;;;;14.37;8.50;;;;;;;-0.06;74.48;100204.56;1500497;90;21396;-82
2023/01/27 04:22:14;;;;;;;17.87;8.07;;;;;;;-0.07;74.23;100206.77;1371372;90;21515;-80
2023/01/27 04:24:41;;;;;;;17.73;9.17;;;;;;;-0.07;74.49;100206.77;1368089;90;21481;-81
2023/01/27 04:27:10;;;;;;;16.37;8.60;;;;;;;-0.07;74.30;100197.66;1370404;90;21498;-82
2023/01/27 04:29:39;;;;;;;13.77;7.13;;;;;;;-0.05;74.30;100206.23;1373119;90;21652;-81
2023/01/27 04:32:08;;;;;;;15.13;8.00;;;;;;;-0.11;74.03;100203.97;1367223;90;21711;-82
2023/01/27 04:34:35;;;;;;;14.03;7.23;;;;;;;-0.14;73.93;100196.34;1367664;90;22519;-80
2023/01/27 04:37:05;;;;;;;22.33;12.37;;;;;;;-0.12;74.13;100195.77;1370328;90;21448;-82
2023/01/27 04:39:32;;;;;;;18.10;11.17;;;;;;;-0.13;74.18;100198.47;1372545;90;21509;-83
2023/01/27 04:41:58;;;;;;;40.43;21.07;;;;;;;-0.10;74.29;100191.80;1490691;90;21523;-80
2023/01/27 04:44:25;;;;;;;17.33;9.00;;;;;;;-0.13;74.28;100195.40;1370593;90;21472;-84
2023/01/27 04:46:53;;;;;;;16.70;9.70;;;;;;;-0.16;74.05;100192.97;1370391;90;21548;-85
2023/01/27 04:49:19;;;;;;;56.00;24.73;;;;;;;-0.12;74.70;100194.47;1369445;90;21524;-83
2023/01/27 04:51:45;;;;;;;13.77;7.40;;;;;;;-0.14;74.36;100187.23;1376677;90;22269;-83
2023/01/27 04:54:11;;;;;;;26.27;12.93;;;;;;;-0.23;73.92;100183.84;1371102;90;21703;-82
2023/01/27 04:56:44;;;;;;;59.27;24.37;;;;;;;-0.20;73.83;100186.28;1371245;90;21493;-82
2023/01/27 04:59:14;;;;;;;16.37;8.60;;;;;;;-0.18;74.22;100183.57;1373632;92;21654;-82
2023/01/27 05:01:40;;;;;;;52.03;20.67;;;;;;;-0.20;74.31;100182.38;1379747;90;21755;-83
2023/01/27 05:04:07;;;;;;;13.90;7.50;;;;;;;-0.22;73.99;100182.91;1443387;90;21562;-83
2023/01/27 05:06:33;;;;;;;20.40;9.70;;;;;;;-0.26;74.25;100179.65;1443122;90;21682;-80
2023/01/27 05:09:00;;;;;;;14.17;7.23;;;;;;;-0.26;74.05;100179.65;1444970;90;21631;-84
2023/01/27 05:11:26;;;;;;;30.07;14.33;;;;;;;-0.29;73.75;100179.82;1442938;90;21743;-83
2023/01/27 05:13:52;;;;;;;13.30;7.60;;;;;;;-0.26;74.29;100188.75;1440385;90;21790;-80
2023/01/27 05:16:26;;;;;;;18.73;8.83;;;;;;;-0.33;73.90;100187.86;1442656;90;22202;-84
2023/01/27 05:18:53;;;;;;;27.00;13.20;;;;;;;-0.29;74.05;100184.16;1441224;90;21439;-81
2023/01/27 05:21:23;;;;;;;13.63;7.37;;;;;;;-0.25;74.28;100183.91;1444571;90;21542;-84
2023/01/27 05:23:50;;;;;;;14.20;7.62;;;;;;;-0.25;74.42;100190.42;1440681;90;21573;-82
2023/01/27 05:26:20;;;;;;;12.87;7.00;;;;;;;-0.30;73.36;100189.83;1444286;90;21806;-86
2023/01/27 05:28:49;;;;;;;18.02;7.40;;;;;;;-0.26;73.67;100194.39;1422686;90;21624;-86
2023/01/27 05:31:22;;;;;;;18.53;9.57;;;;;;;-0.27;74.02;100192.72;1446523;90;21505;-84
2023/01/27 05:33:52;;;;;;;16.27;8.43;;;;;;;-0.27;73.97;100188.35;1440754;90;22787;-85
2023/01/27 05:36:21;;;;;;;83.13;27.93;;;;;;;-0.26;73.81;100186.16;1366745;90;21568;-82
2023/01/27 05:38:47;;;;;;;14.37;8.00;;;;;;;-0.22;74.49;100192.48;1368141;90;22106;-82
2023/01/27 05:41:16;;;;;;;48.27;16.90;;;;;;;-0.24;74.15;100189.95;1370368;90;21426;-83
2023/01/27 05:43:44;;;;;;;51.03;19.27;;;;;;;-0.22;74.76;100189.41;1492119;90;21484;-83
2023/01/27 05:46:19;;;;;;;15.77;8.37;;;;;;;-0.22;74.67;100188.58;1367942;90;22233;-82
2023/01/27 05:48:49;;;;;;;18.87;9.57;;;;;;;-0.21;74.45;100184.58;1367411;90;21662;-80
2023/01/27 05:51:18;;;;;;;13.77;7.40;;;;;;;-0.23;73.95;100174.74;1367686;90;21642;-82
2023/01/27 05:53:45;;;;;;;12.83;6.63;;;;;;;-0.21;74.35;100177.24;1373349;90;21654;-80
2023/01/27 05:56:16;;;;;;;10.67;6.20;;;;;;;-0.23;73.65;100165.64;1524569;90;21518;-77
2023/01/27 05:58:42;;;;;;;14.23;7.08;;;;;;;-0.24;73.96;100163.94;1524696;90;21387;-81
2023/01/27 06:01:14;;;;;;;12.73;7.37;;;;;;;-0.22;73.84;100169.91;1521266;90;21480;-80
2023/01/27 06:03:42;;;;;;;14.87;7.17;;;;;;;-0.20;73.69;100166.77;1524561;90;21606;-82
2023/01/27 06:06:09;;;;;;;12.90;7.43;;;;;;;-0.21;74.02;100165.07;1375398;90;21545;-82
2023/01/27 06:08:36;;;;;;;16.97;6.43;;;;;;;-0.19;73.97;100166.30;1368984;90;21635;-79
2023/01/27 06:11:03;;;;;;;17.57;9.47;;;;;;;-0.23;73.68;100165.64;1370324;90;21540;-82
2023/01/27 06:13:30;;;;;;;18.20;9.10;;;;;;;-0.18;73.73;100176.60;1370326;90;22446;-83
2023/01/27 06:15:56;;;;;;;23.47;10.80;;;;;;;-0.12;74.32;100171.05;1376514;90;21546;-84
2023/01/27 06:18:23;;;;;;;15.13;7.97;;;;;;;-0.15;73.76;100171.23;1524784;90;22356;-81
2023/01/27 06:20:49;;;;;;;19.43;10.10;;;;;;;-0.12;73.76;100178.86;1370716;90;21373;-80
2023/01/27 06:23:17;;;;;;;16.33;8.83;;;;;;;-0.08;73.97;100182.98;1351225;92;21680;-82
2023/01/27 06:25:48;;;;;;;16.00;9.67;;;;;;;-0.10;73.75;100189.19;1369888;90;21425;-82
2023/01/27 06:28:16;;;;;;;12.70;8.08;;;;;;;-0.08;73.33;100189.48;1369040;90;21638;-83
2023/01/27 06:30:43;;;;;;;15.80;8.90;;;;;;;-0.03;73.51;100191.81;1374404;90;21299;-83
2023/01/27 06:33:09;;;;;;;26.53;9.57;;;;;;;-0.05;72.91;100197.12;1370047;90;21624;-78
2023/01/27 06:35:38;;;;;;;18.67;9.37;;;;;;;-0.04;72.75;100205.29;1399890;90;22516;-82
2023/01/27 06:38:08;;;;;;;12.43;7.07;;;;;;;-0.02;72.36;100200.84;1368215;90;22215;-83
2023/01/27 06:40:35;;;;;;;13.90;8.37;;;;;;;0.02;72.30;100201.51;1524374;90;21550;-82
2023/01/27 06:43:01;;;;;;;15.47;8.03;;;;;;;0.01;72.84;100197.70;1377163;90;21749;-82
2023/01/27 06:45:28;;;;;;;17.97;9.70;;;;;;;0.02;72.59;100204.11;1370283;90;22400;-83
2023/01/27 06:47:57;;;;;;;16.27;9.07;;;;;;;0.03;73.13;100189.33;1370791;90;21418;-83
2023/01/27 06:50:25;;;;;;;13.30;7.87;;;;;;;0.04;73.13;100191.03;1367934;90;21520;-82
2023/01/27 06:52:52;;;;;;;13.03;7.87;;;;;;;0.01;72.52;100188.13;1368859;90;22519;-82
2023/01/27 06:55:18;;;;;;;14.67;8.60;;;;;;;0.04;73.10;100185.83;1369888;90;21521;-84
2023/01/27 06:57:50;;;;;;;15.27;8.53;;;;;;;0.03;73.18;100188.89;1371023;90;21559;-81
2023/01/27 07:00:15;;;;;;;19.33;11.87;;;;;;;0.05;73.34;100182.28;1522331;90;21644;-85
2023/01/27 07:02:43;;;;;;;13.30;7.20;;;;;;;0.10;73.56;100188.91;1368970;90;21571;-78
2023/01/27 07:05:10;;;;;;;16.10;8.03;;;;;;;0.08;73.17;100187.31;1370225;90;21621;-80
2023/01/27 07:07:37;;;;;;;17.80;9.97;;;;;;;0.12;73.31;100186.23;1369596;90;22298;-80
2023/01/27 07:10:04;;;;;;;16.07;7.53;;;;;;;0.11;73.17;100187.97;1370390;90;21509;-80
2023/01/27 07:12:30;;;;;;;16.57;8.77;;;;;;;0.10;73.00;100185.47;1521635;90;21583;-78
2023/01/27 07:14:56;;;;;;;14.13;7.23;;;;;;;0.17;73.25;100188.09;1370694;90;21639;-80
2023/01/27 07:17:23;;;;;;;15.33;8.53;;;;;;;0.13;72.80;100187.91;1376422;90;21673;-79
2023/01/27 07:19:49;;;;;;;12.60;6.97;;;;;;;0.15;72.96;100186.06;1351704;92;21508;-79
2023/01/27 07:22:15;;;;;;;14.50;8.30;;;;;;;0.18;72.84;100188.48;1370922;90;21644;-80
2023/01/27 07:24:41;;;;;;;13.17;8.20;;;;;;;0.15;72.41;100187.36;1370573;90;21395;-80
2023/01/27 07:27:07;;;;;;;14.87;8.13;;;;;;;0.16;72.55;100191.62;1370701;90;22356;-80
2023/01/27 07:40:41;;;;;;;18.13;9.57;;;;;;;0.24;73.22;100188.13;1473548;93;21426;-79
2023/01/27 07:43:09;;;;;;;13.53;8.47;;;;;;;0.27;73.27;100189.26;1346609;95;21744;-79
2023/01/27 07:49:34;;;;;;;22.40;12.50;;;;;;;0.33;73.08;100187.59;1451246;94;21485;-82
2023/01/27 07:52:00;;;;;;;14.23;8.93;;;;;;;0.43;73.51;100186.16;1350590;92;21504;-80
2023/01/27 07:54:26;;;;;;;15.97;9.13;;;;;;;0.44;72.97;100186.98;1349398;92;22393;-81
2023/01/27 07:56:52;;;;;;;16.10;9.70;;;;;;;0.49;73.04;100190.17;1405179;93;22541;-79
2023/01/27 07:59:19;;;;;;;22.23;11.27;;;;;;;0.49;72.85;100194.08;1311148;95;21404;-80
2023/01/27 08:01:45;;;;;;;20.73;11.47;;;;;;;0.59;73.08;100198.27;1356671;92;21574;-82
2023/01/27 08:04:11;;;;;;;21.07;10.37;;;;;;;0.65;73.03;100196.61;1349961;92;22636;-81
2023/01/27 08:06:38;;;;;;;19.13;11.87;;;;;;;0.68;71.74;100195.12;1349189;92;21677;-82
2023/01/27 08:09:05;;;;;;;30.30;14.10;;;;;;;0.70;72.45;100195.88;1413032;89;21535;-79
2023/01/27 08:11:31;;;;;;;18.67;10.23;;;;;;;0.77;72.49;100197.18;1391847;89;22470;-81
2023/01/27 08:13:57;;;;;;;34.27;15.20;;;;;;;0.70;71.29;100205.47;1391781;88;22556;-81
2023/01/27 08:16:24;;;;;;;19.87;9.67;;;;;;;0.80;72.50;100202.20;1391968;88;21574;-80
2023/01/27 08:18:52;;;;;;;20.97;11.47;;;;;;;0.79;71.27;100206.22;1398032;88;21510;-79
2023/01/27 08:21:19;;;;;;;32.10;15.77;;;;;;;0.82;71.81;100208.64;1389568;89;21476;-90
2023/01/27 08:23:45;;;;;;;30.13;15.43;;;;;;;0.89;72.14;100214.72;1550114;88;21724;-87
2023/01/27 08:26:12;;;;;;;181.83;60.50;;;;;;;0.96;72.26;100226.08;1391907;87;21359;-83
2023/01/27 08:28:40;;;;;;;116.20;55.53;;;;;;;1.00;72.13;100224.48;1391730;88;21546;-85
2023/01/27 08:31:11;;;;;;;87.60;34.17;;;;;;;1.00;71.63;100219.27;1389924;89;22513;-87
2023/01/27 08:33:38;;;;;;;96.12;42.08;;;;;;;1.07;71.85;100228.41;1544205;88;21560;-85
2023/01/27 08:36:10;;;;;;;68.03;30.37;;;;;;;1.12;71.38;100230.72;1390875;88;22085;-85
2023/01/27 08:38:37;;;;;;;103.00;45.73;;;;;;;1.15;71.60;100237.05;1390556;88;22270;-82
2023/01/27 08:41:06;;;;;;;66.70;29.07;;;;;;;1.17;71.46;100239.11;1391448;88;21559;-88
2023/01/27 08:43:33;;;;;;;41.07;21.63;;;;;;;1.18;71.64;100235.59;1394851;88;22424;-87
2023/01/27 08:45:59;;;;;;;46.50;24.50;;;;;;;1.17;71.09;100232.59;1397681;88;21576;-89
2023/01/27 08:48:28;;;;;;;60.90;30.80;;;;;;;1.18;71.62;100226.47;1391544;88;21553;-84
2023/01/27 08:50:55;;;;;;;37.73;19.33;;;;;;;1.15;70.90;100235.75;1491053;89;21713;-89
2023/01/27 08:53:23;;;;;;;41.77;22.07;;;;;;;1.19;71.38;100233.34;1450103;89;22462;-89
2023/01/27 08:55:49;;;;;;;30.87;16.40;;;;;;;1.21;71.40;100234.55;1467572;89;21703;-84
2023/01/27 08:58:16;;;;;;;28.47;17.00;;;;;;;1.12;70.94;100234.19;1460171;88;21691;-86
2023/01/27 09:00:44;;;;;;;30.20;18.30;;;;;;;1.16;70.85;100235.31;1463051;88;21794;-88
2023/01/27 09:03:10;;;;;;;34.97;21.03;;;;;;;1.19;71.31;100245.08;1468575;89;21564;-87
2023/01/27 09:05:37;;;;;;;24.23;13.80;;;;;;;1.25;71.74;100249.92;1460216;88;21694;-87
2023/01/27 09:08:04;;;;;;;25.53;14.83;;;;;;;1.28;71.73;100254.12;1458141;88;21590;-88
2023/01/27 09:10:30;;;;;;;24.90;13.63;;;;;;;1.32;71.96;100243.86;1467694;89;21516;-87
2023/01/27 09:12:57;;;;;;;30.90;15.00;;;;;;;1.33;71.78;100249.00;1467696;87;21501;-85
2023/01/27 09:15:23;;;;;;;38.40;17.43;;;;;;;1.35;71.61;100244.53;1462349;88;22171;-84
2023/01/27 09:17:49;;;;;;;23.93;13.30;;;;;;;1.40;71.62;100248.15;1464743;88;21796;-85
2023/01/27 09:20:16;;;;;;;19.43;10.93;;;;;;;1.43;71.61;100249.73;1449100;89;21815;-84
2023/01/27 09:22:42;;;;;;;24.93;13.83;;;;;;;1.38;70.88;100257.00;1465173;89;21589;-85
2023/01/27 09:25:16;;;;;;;23.23;14.40;;;;;;;1.46;71.90;100252.16;1471119;88;22487;-87
2023/01/27 09:27:43;;;;;;;23.23;13.80;;;;;;;1.48;71.77;100252.91;1466248;89;21794;-87
2023/01/27 09:30:12;;;;;;;21.67;13.50;;;;;;;1.47;71.72;100261.20;1466891;88;21615;-87
2023/01/27 09:32:39;;;;;;;22.40;12.60;;;;;;;1.48;71.99;100262.04;1460855;88;21794;-82
2023/01/27 09:35:06;;;;;;;22.43;13.47;;;;;;;1.37;71.64;100260.08;1467771;88;21605;-86
2023/01/27 09:37:38;;;;;;;20.77;10.63;;;;;;;1.32;71.50;100259.06;1464242;89;22196;-87
2023/01/27 09:40:13;;;;;;;22.87;13.13;;;;;;;1.21;71.74;100260.61;1465920;88;21786;-86
2023/01/27 09:43:04;;;;;;;24.47;13.67;;;;;;;1.26;72.39;100256.80;1467697;89;22631;-88
2023/01/27 09:45:57;;;;;;;22.77;13.50;;;;;;;1.20;72.96;100257.17;1464651;89;22585;-86
2023/01/27 09:48:34;;;;;;;24.90;13.40;;;;;;;1.18;73.81;100251.67;1548320;85;21448;-87
2023/01/27 09:51:24;;;;;;;22.80;13.53;;;;;;;1.19;73.88;100248.99;1479842;86;21555;-82
2023/01/27 09:54:17;;;;;;;25.33;13.87;;;;;;;1.06;73.84;100238.91;1580768;86;21623;-83
2023/01/27 09:56:52;;;;;;;23.63;13.03;;;;;;;1.03;74.43;100246.91;1527647;86;21803;-84
2023/01/27 09:59:45;;;;;;;21.77;13.43;;;;;;;1.01;75.12;100243.11;1500393;86;21639;-84
2023/01/27 10:02:32;;;;;;;27.03;13.33;;;;;;;1.01;74.66;100240.98;1505643;86;21711;-84
2023/01/27 10:05:27;;;;;;;25.40;13.90;;;;;;;0.90;74.79;100241.13;1499282;86;22590;-85
2023/01/27 10:08:21;;;;;;;33.30;14.70;;;;;;;0.88;74.73;100239.55;1496958;86;22642;-88
2023/01/27 10:11:29;;;;;;;19.07;11.53;;;;;;;0.93;74.99;100248.41;1497503;86;21644;-83
2023/01/27 10:14:09;;;;;;;26.53;14.43;;;;;;;0.94;74.85;100236.58;1499101;86;22663;-85
2023/01/27 10:17:01;;;;;;;30.07;14.27;;;;;;;1.06;75.32;100233.70;1497998;86;22068;-83
2023/01/27 10:19:51;;;;;;;21.83;12.70;;;;;;;1.15;75.88;100240.96;1506422;86;21651;-86
2023/01/27 10:22:29;;;;;;;28.27;15.10;;;;;;;1.29;75.96;100249.27;1496442;86;21691;-90
2023/01/27 10:25:03;;;;;;;24.83;13.87;;;;;;;1.32;75.06;100246.03;1498146;86;22429;-91
2023/01/27 10:27:37;;;;;;;26.40;16.13;;;;;;;1.40;76.07;100246.84;1496879;86;21541;-89
2023/01/27 10:30:22;;;;;;;28.33;14.97;;;;;;;1.42;75.61;100247.60;1498736;86;21727;-85
2023/01/27 10:33:06;;;;;;;23.13;13.20;;;;;;;1.51;75.60;100247.03;1501340;86;21914;-89
2023/01/27 10:35:52;;;;;;;23.47;13.80;;;;;;;1.66;74.87;100232.67;1499173;86;21755;-86
2023/01/27 10:38:40;;;;;;;28.03;15.77;;;;;;;1.66;74.87;100232.67;1494341;86;21855;-91
2023/01/27 10:41:31;;;;;;;23.83;13.90;;;;;;;1.86;74.26;100239.25;1497583;86;21874;-86
2023/01/27 10:44:08;;;;;;;24.53;13.77;;;;;;;1.86;74.26;100239.25;1499387;86;21915;-90
2023/01/27 10:47:00;;;;;;;31.57;17.73;;;;;;;1.87;75.12;100243.53;1495633;86;21353;-90
2023/01/27 10:49:37;;;;;;;;;;;;;;;1.91;75.64;100240.64;1501391;86;21994;-87
2023/01/27 10:52:11;;;;;;;34.17;20.50;;;;;;;1.87;74.90;100233.95;1501874;86;20206;-90
2023/01/27 10:55:14;;;;;;;26.03;14.77;;;;;;;1.87;74.90;100233.95;1500726;86;21908;-90
2023/01/27 10:57:51;;;;;;;27.57;15.80;;;;;;;1.89;74.68;100236.45;1497092;86;21865;-91
2023/01/27 11:00:32;;;;;;;22.10;13.63;;;;;;;1.76;75.13;100221.57;1506073;86;21999;-88
2023/01/27 11:03:23;;;;;;;28.35;15.63;;;;;;;1.76;75.13;100221.57;1502318;86;21880;-88
2023/01/27 11:06:01;;;;;;;22.93;13.30;;;;;;;1.75;75.58;100227.70;1500373;86;21395;-88
2023/01/27 11:08:32;;;;;;;25.40;14.33;;;;;;;1.75;75.58;100227.70;1501893;86;21854;-89
2023/01/27 11:13:46;;;;;;;24.20;14.70;;;;;;;1.84;75.58;100223.67;1498540;86;20405;-89
2023/01/27 11:16:19;;;;;;;26.73;16.63;;;;;;;1.77;75.65;100211.49;1498519;86;21789;-90
2023/01/27 11:18:50;;;;;;;26.07;15.60;;;;;;;1.77;75.65;100211.49;1500969;86;21803;-89
2023/01/27 11:21:23;;;;;;;28.80;16.07;;;;;;;1.71;76.00;100214.97;1496729;86;21851;-90
2023/01/27 11:23:54;;;;;;;27.03;14.60;;;;;;;1.73;76.21;100206.11;1500848;86;21707;-88
2023/01/27 11:26:43;;;;;;;26.20;14.83;;;;;;;1.72;76.56;100199.20;1503631;86;21780;-86
2023/01/27 11:29:36;;;;;;;28.10;15.70;;;;;;;1.77;77.20;100198.45;1504961;86;21470;-90
2023/01/27 11:32:35;;;;;;;25.47;14.50;;;;;;;1.77;77.31;100196.31;1501599;86;21732;-90
2023/01/27 11:35:06;;;;;;;38.60;22.83;;;;;;;1.77;76.91;100191.92;1501694;86;21669;-89
2023/01/27 11:37:42;;;;;;;29.87;16.82;;;;;;;1.91;76.90;100187.61;1501953;86;21895;-90
2023/01/27 11:40:26;;;;;;;31.47;18.20;;;;;;;1.95;77.25;100178.63;1484489;86;21447;-88
2023/01/27 11:42:57;;;;;;;25.40;15.30;;;;;;;2.09;77.09;100180.36;1503655;86;21708;-89
2023/01/27 11:45:24;;;;;;;29.90;16.03;;;;;;;2.22;76.93;100175.55;1500187;86;22692;-91
2023/01/27 11:47:55;;;;;;;64.20;32.10;;;;;;;2.22;76.81;100175.55;1494221;86;22150;-90
2023/01/27 11:50:26;;;;;;;40.37;21.13;;;;;;;2.22;76.81;100175.55;1485359;86;22846;-87
2023/01/27 11:53:26;;;;;;;35.45;18.07;;;;;;;2.16;76.84;100173.82;1499926;86;22009;-90
2023/01/27 11:56:00;;;;;;;28.03;15.10;;;;;;;1.91;77.82;100162.81;1489139;87;21691;-89
2023/01/27 11:58:54;;;;;;;30.10;17.93;;;;;;;1.91;77.82;100162.81;1496722;87;21884;-87
2023/01/27 12:01:25;;;;;;;50.57;26.20;;;;;;;1.92;78.49;100173.61;1496175;87;21728;-90
2023/01/27 12:04:00;;;;;;;39.20;21.67;;;;;;;2.05;77.98;100176.28;1492401;87;22777;-86
2023/01/27 12:06:34;;;;;;;27.13;16.27;;;;;;;2.07;77.63;100182.23;1494884;86;21723;-91
2023/01/27 12:09:00;;;;;;;29.40;17.23;;;;;;;2.13;77.79;100181.38;1499213;86;21966;-91
2023/01/27 12:11:30;;;;;;;26.57;16.80;;;;;;;2.14;77.52;100173.91;1481414;87;22696;-88
2023/01/27 12:14:02;;;;;;;23.87;14.27;;;;;;;2.31;77.46;100175.89;1488674;86;21892;-90
2023/01/27 12:16:46;;;;;;;27.83;15.73;;;;;;;2.36;77.33;100164.20;1498014;87;21821;-91
2023/01/27 12:19:30;;;;;;;26.30;15.67;;;;;;;2.47;77.28;100173.92;1488449;87;21823;-91